createdAt,value
2022-09-01T00:16:04.759Z,1.15
2022-09-01T00:18:33.383Z,1.40
2022-09-01T00:21:04.578Z,1.27
2022-09-01T00:23:38.425Z,1.13
2022-09-01T00:36:37.150Z,1.60
2022-09-01T01:02:11.266Z,1.52
2022-09-01T01:04:46.297Z,1.85
2022-09-01T01:14:32.744Z,1.33
2022-09-01T01:40:24.941Z,1.67
2022-09-01T01:42:59.996Z,1.50
2022-09-01T01:45:33.696Z,1.60
2022-09-01T01:48:06.103Z,1.45
2022-09-01T01:50:35.700Z,1.60
2022-09-01T01:53:11.082Z,1.23
2022-09-01T01:55:41.853Z,1.33
2022-09-01T01:58:12.376Z,1.55
2022-09-01T02:03:38.338Z,1.50
2022-09-01T02:06:09.742Z,1.27
2022-09-01T02:08:39.257Z,1.58
2022-09-01T02:11:09.175Z,1.90
2022-09-01T02:13:44.669Z,1.40
2022-09-01T02:16:15.079Z,1.75
2022-09-01T02:18:48.223Z,1.55
2022-09-01T02:21:20.451Z,1.70
2022-09-01T02:23:50.303Z,1.90
2022-09-01T02:26:18.997Z,1.25
2022-09-01T02:28:55.729Z,1.48
2022-09-01T02:31:37.518Z,1.20
2022-09-01T02:34:10.746Z,1.30
2022-09-01T02:36:44.316Z,1.60
2022-09-01T02:39:12.366Z,1.50
2022-09-01T02:41:43.442Z,1.65
2022-09-01T02:44:14.784Z,1.90
2022-09-01T02:46:45.526Z,1.50
2022-09-01T02:49:19.849Z,1.20
2022-09-01T02:51:53.956Z,1.30
2022-09-01T02:54:32.547Z,1.42
2022-09-01T02:57:00.981Z,1.67
2022-09-01T02:59:30.563Z,1.63
2022-09-01T03:02:00.085Z,1.40
2022-09-01T03:04:35.325Z,1.60
2022-09-01T03:07:04.239Z,1.42
2022-09-01T03:09:33.778Z,1.60
2022-09-01T03:12:01.965Z,1.40
2022-09-01T03:14:30.021Z,1.40
2022-09-01T03:17:00.655Z,1.75
2022-09-01T03:19:37.092Z,1.85
2022-09-01T03:22:05.213Z,1.30
2022-09-01T03:27:17.919Z,1.55
2022-09-01T03:29:45.873Z,1.65
2022-09-01T03:32:15.246Z,1.50
2022-09-01T03:34:43.668Z,1.45
2022-09-01T03:37:12.233Z,1.80
2022-09-01T03:39:48.047Z,1.20
2022-09-01T03:42:25.934Z,1.40
2022-09-01T03:44:55.174Z,1.38
2022-09-01T03:47:27.468Z,1.48
2022-09-01T03:49:59.877Z,1.50
2022-09-01T03:52:27.862Z,1.42
2022-09-01T03:54:55.887Z,1.60
2022-09-01T03:57:37.534Z,1.38
2022-09-01T04:00:26.176Z,1.40
2022-09-01T04:03:00.534Z,1.55
2022-09-01T04:08:08.106Z,1.30
2022-09-01T04:10:38.290Z,1.45
2022-09-01T04:13:11.755Z,1.45
2022-09-01T04:15:41.126Z,1.60
2022-09-01T04:18:10.717Z,1.13
2022-09-01T04:20:59.699Z,1.30
2022-09-01T04:23:33.973Z,1.77
2022-09-01T04:28:40.297Z,1.30
2022-09-01T04:31:26.782Z,1.60
2022-09-01T04:33:56.268Z,1.65
2022-09-01T04:36:27.483Z,1.40
2022-09-01T04:39:08.746Z,1.48
2022-09-01T04:41:39.747Z,1.40
2022-09-01T04:44:16.775Z,1.40
2022-09-01T04:46:55.603Z,1.25
2022-09-01T04:49:33.738Z,1.45
2022-09-01T04:52:01.815Z,1.38
2022-09-01T04:54:35.732Z,1.58
2022-09-01T04:57:04.683Z,1.30
2022-09-01T04:59:33.039Z,1.40
2022-09-01T05:02:01.958Z,1.52
2022-09-01T05:04:40.320Z,1.88
2022-09-01T05:07:11.284Z,1.50
2022-09-01T05:09:39.639Z,1.20
2022-09-01T05:12:15.897Z,1.80
2022-09-01T05:14:47.181Z,1.40
2022-09-01T05:17:17.340Z,1.90
2022-09-01T05:19:51.144Z,1.27
2022-09-01T05:22:23.107Z,2.00
2022-09-01T05:24:54.960Z,1.42
2022-09-01T05:27:24.021Z,1.30
2022-09-01T05:29:53.186Z,1.50
2022-09-01T05:32:26.190Z,1.40
2022-09-01T05:34:57.013Z,1.42
2022-09-01T05:37:28.813Z,1.35
2022-09-01T05:39:57.759Z,1.40
2022-09-01T05:42:27.568Z,1.70
2022-09-01T05:44:55.722Z,1.52
2022-09-01T05:47:37.425Z,1.95
2022-09-01T05:50:13.640Z,1.35
2022-09-01T05:52:50.936Z,1.33
2022-09-01T05:55:19.070Z,1.45
2022-09-01T05:57:48.200Z,1.30
2022-09-01T06:00:18.098Z,1.55
2022-09-01T06:02:47.102Z,1.30
2022-09-01T06:05:16.643Z,1.40
2022-09-01T06:07:44.681Z,1.70
2022-09-01T06:10:17.437Z,1.45
2022-09-01T06:12:53.981Z,1.25
2022-09-01T06:15:27.019Z,1.50
2022-09-01T06:18:01.176Z,1.58
2022-09-01T06:23:07.501Z,1.30
2022-09-01T06:25:39.646Z,1.60
2022-09-01T06:28:08.555Z,1.30
2022-09-01T06:30:45.639Z,1.90
2022-09-01T06:33:19.410Z,1.80
2022-09-01T06:35:48.988Z,1.40
2022-09-01T06:38:17.584Z,1.25
2022-09-01T06:40:45.874Z,1.70
2022-09-01T06:43:16.364Z,1.58
2022-09-01T06:45:51.519Z,1.33
2022-09-01T06:48:20.791Z,1.60
2022-09-01T06:53:47.501Z,1.50
2022-09-01T06:56:18.669Z,1.40
2022-09-01T06:58:49.007Z,1.48
2022-09-01T07:01:21.187Z,1.20
2022-09-01T07:03:52.466Z,1.20
2022-09-01T07:09:22.249Z,1.13
2022-09-01T07:12:37.349Z,1.00
2022-09-01T07:17:42.744Z,1.13
2022-09-01T07:20:28.758Z,1.13
2022-09-01T07:23:03.811Z,0.88
2022-09-01T07:25:48.385Z,0.95
2022-09-01T07:28:36.049Z,1.10
2022-09-01T07:34:38.446Z,1.08
2022-09-01T07:39:51.808Z,1.38
2022-09-01T07:45:27.373Z,1.00
2022-09-01T07:47:56.422Z,1.00
2022-09-01T07:53:22.566Z,1.60
2022-09-01T07:55:53.140Z,1.25
2022-09-01T07:58:25.163Z,1.10
2022-09-01T08:00:54.482Z,1.00
2022-09-01T08:03:26.123Z,1.00
2022-09-01T08:05:57.886Z,0.98
2022-09-01T08:08:29.240Z,1.52
2022-09-01T08:11:06.084Z,1.25
2022-09-01T08:16:18.054Z,1.38
2022-09-01T08:18:48.748Z,1.48
2022-09-01T08:21:18.814Z,1.33
2022-09-01T08:23:47.913Z,0.65
2022-09-01T08:26:22.877Z,0.95
2022-09-01T08:28:57.947Z,0.88
2022-09-01T08:31:30.812Z,1.00
2022-09-01T08:34:00.107Z,1.25
2022-09-01T08:36:28.541Z,0.98
2022-09-01T08:38:56.582Z,0.90
2022-09-01T08:41:39.074Z,1.02
2022-09-01T08:44:23.925Z,0.90
2022-09-01T08:46:57.350Z,0.70
2022-09-01T08:49:27.585Z,0.88
2022-09-01T08:52:02.430Z,0.98
2022-09-01T08:54:38.560Z,1.00
2022-09-01T08:57:15.878Z,1.08
2022-09-01T08:59:49.915Z,0.95
2022-09-01T09:02:32.000Z,1.02
2022-09-01T09:05:22.130Z,0.80
2022-09-01T09:08:09.146Z,0.80
2022-09-01T09:10:50.514Z,0.70
2022-09-01T09:13:41.448Z,1.00
2022-09-01T09:16:13.384Z,0.98
2022-09-01T09:19:00.610Z,0.70
2022-09-01T09:21:40.722Z,0.90
2022-09-01T09:24:19.344Z,0.90
2022-09-01T09:26:50.674Z,1.00
2022-09-01T09:29:20.739Z,0.98
2022-09-01T09:31:50.678Z,0.90
2022-09-01T09:34:34.282Z,0.73
2022-09-01T09:37:23.529Z,0.93
2022-09-01T09:40:15.247Z,1.00
2022-09-01T09:43:05.955Z,0.95
2022-09-01T09:45:37.966Z,0.80
2022-09-01T09:48:24.008Z,0.95
2022-09-01T09:50:58.211Z,0.70
2022-09-01T09:56:05.504Z,0.68
2022-09-01T09:58:39.523Z,0.82
2022-09-01T10:01:17.412Z,0.77
2022-09-01T10:03:50.323Z,0.88
2022-09-01T10:06:33.087Z,0.80
2022-09-01T10:09:02.684Z,1.02
2022-09-01T10:11:44.273Z,0.65
2022-09-01T10:14:35.354Z,0.70
2022-09-01T10:17:16.223Z,0.70
2022-09-01T10:19:54.235Z,1.00
2022-09-01T10:22:27.966Z,1.20
2022-09-01T10:24:58.658Z,1.05
2022-09-01T10:27:36.506Z,0.82
2022-09-01T10:30:12.627Z,0.73
2022-09-01T10:32:52.524Z,0.80
2022-09-01T10:35:29.842Z,0.70
2022-09-01T10:38:00.331Z,0.88
2022-09-01T10:40:43.923Z,0.75
2022-09-01T10:43:37.855Z,0.70
2022-09-01T10:46:50.852Z,0.73
2022-09-01T10:49:51.971Z,0.75
2022-09-01T10:52:56.999Z,0.68
2022-09-01T10:55:30.181Z,1.05
2022-09-01T11:03:57.159Z,0.80
2022-09-01T11:07:12.235Z,0.73
2022-09-01T11:09:43.732Z,0.75
2022-09-01T11:12:40.117Z,0.90
2022-09-01T11:15:35.597Z,0.90
2022-09-01T11:18:08.820Z,0.70
2022-09-01T11:20:41.799Z,0.77
2022-09-01T11:23:14.946Z,0.70
2022-09-01T11:25:46.542Z,0.80
2022-09-01T11:28:40.061Z,0.50
2022-09-01T11:31:32.278Z,0.70
2022-09-01T11:34:16.691Z,0.88
2022-09-01T11:36:56.648Z,0.60
2022-09-01T11:39:42.374Z,0.70
2022-09-01T11:42:22.905Z,0.75
2022-09-01T11:44:58.782Z,0.88
2022-09-01T11:47:30.055Z,0.73
2022-09-01T11:50:00.941Z,1.35
2022-09-01T11:52:37.633Z,0.60
2022-09-01T11:55:08.164Z,0.80
2022-09-01T11:57:40.707Z,1.00
2022-09-01T12:00:12.307Z,0.98
2022-09-01T12:02:46.462Z,0.63
2022-09-01T12:08:29.853Z,0.85
2022-09-01T12:14:54.959Z,0.70
2022-09-01T12:17:28.419Z,0.82
2022-09-01T12:20:02.540Z,0.75
2022-09-01T12:22:32.207Z,0.63
2022-09-01T12:25:00.785Z,0.70
2022-09-01T12:27:28.798Z,0.65
2022-09-01T12:29:58.899Z,0.60
2022-09-01T12:32:33.789Z,0.70
2022-09-01T12:35:10.962Z,0.70
2022-09-01T12:37:39.669Z,0.75
2022-09-01T12:40:25.432Z,0.90
2022-09-01T12:42:55.035Z,0.93
2022-09-01T12:45:41.708Z,0.60
2022-09-01T12:48:31.526Z,0.68
2022-09-01T12:51:03.459Z,0.63
2022-09-01T12:53:36.741Z,0.68
2022-09-01T12:56:20.929Z,0.98
2022-09-01T12:58:53.830Z,0.80
2022-09-01T13:01:29.875Z,0.95
2022-09-01T13:04:30.055Z,0.82
2022-09-01T13:07:04.230Z,0.70
2022-09-01T13:12:18.188Z,0.75
2022-09-01T13:14:46.309Z,0.80
2022-09-01T13:17:15.969Z,0.90
2022-09-01T13:19:44.279Z,0.77
2022-09-01T13:22:14.204Z,0.82
2022-09-01T13:24:42.271Z,0.73
2022-09-01T13:27:20.800Z,1.08
2022-09-01T13:29:53.343Z,0.68
2022-09-01T13:32:24.001Z,1.08
2022-09-01T13:34:53.995Z,0.93
2022-09-01T13:37:31.691Z,0.70
2022-09-01T13:39:59.710Z,1.05
2022-09-01T13:42:28.752Z,1.00
2022-09-01T13:44:59.997Z,0.70
2022-09-01T13:47:30.517Z,0.85
2022-09-01T13:50:09.298Z,0.82
2022-09-01T13:52:39.756Z,0.82
2022-09-01T13:55:09.585Z,0.70
2022-09-01T13:57:37.606Z,1.05
2022-09-01T14:00:10.968Z,1.05
2022-09-01T14:02:43.041Z,0.85
2022-09-01T14:05:11.249Z,0.50
2022-09-01T14:07:39.311Z,0.93
2022-09-01T14:10:08.943Z,1.08
2022-09-01T14:12:37.598Z,0.90
2022-09-01T14:15:17.047Z,0.73
2022-09-01T14:17:48.057Z,0.82
2022-09-01T14:20:19.413Z,0.80
2022-09-01T14:22:50.501Z,0.98
2022-09-01T14:25:25.692Z,0.93
2022-09-01T14:27:53.926Z,0.73
2022-09-01T14:30:27.859Z,0.80
2022-09-01T14:33:01.237Z,0.93
2022-09-01T14:35:33.702Z,1.13
2022-09-01T14:38:05.301Z,0.98
2022-09-01T14:40:33.817Z,0.85
2022-09-01T14:43:01.996Z,0.85
2022-09-01T14:45:30.222Z,1.05
2022-09-01T14:48:15.300Z,1.00
2022-09-01T14:50:48.766Z,0.90
2022-09-01T14:53:16.885Z,1.40
2022-09-01T14:55:49.637Z,0.80
2022-09-01T14:58:19.609Z,0.90
2022-09-01T15:00:48.054Z,0.80
2022-09-01T15:03:22.654Z,1.02
2022-09-01T15:05:57.094Z,0.95
2022-09-01T15:10:56.989Z,1.00
2022-09-01T15:13:31.022Z,1.25
2022-09-01T15:15:59.808Z,0.90
2022-09-01T15:18:27.871Z,0.98
2022-09-01T15:21:00.567Z,0.90
2022-09-01T15:23:33.912Z,0.88
2022-09-01T15:26:02.000Z,0.75
2022-09-01T15:28:30.082Z,0.82
2022-09-01T15:30:59.972Z,0.90
2022-09-01T15:33:28.153Z,0.68
2022-09-01T15:35:57.565Z,1.10
2022-09-01T15:38:30.343Z,0.77
2022-09-01T15:41:01.729Z,0.70
2022-09-01T15:43:30.370Z,0.73
2022-09-01T15:45:59.542Z,1.25
2022-09-01T15:48:28.885Z,0.63
2022-09-01T15:51:17.654Z,0.88
2022-09-01T15:53:45.710Z,1.15
2022-09-01T15:56:13.724Z,1.40
2022-09-01T15:59:00.931Z,1.08
2022-09-01T16:01:31.581Z,1.20
2022-09-01T16:04:01.219Z,1.00
2022-09-01T16:06:30.692Z,1.00
2022-09-01T16:08:59.123Z,0.88
2022-09-01T16:11:28.074Z,1.48
2022-09-01T16:13:57.001Z,0.60
2022-09-01T16:16:42.697Z,0.80
2022-09-01T16:19:25.517Z,1.08
2022-09-01T16:22:02.626Z,0.90
2022-09-01T16:24:41.305Z,0.63
2022-09-01T16:27:13.246Z,0.90
2022-09-01T16:29:46.386Z,0.98
2022-09-01T16:32:15.558Z,1.00
2022-09-01T16:34:48.056Z,1.02
2022-09-01T16:37:42.248Z,0.95
2022-09-01T16:40:20.357Z,0.90
2022-09-01T16:42:57.718Z,1.23
2022-09-01T16:45:42.895Z,0.85
2022-09-01T16:48:19.103Z,1.08
2022-09-01T16:50:55.512Z,1.20
2022-09-01T16:53:43.015Z,1.20
2022-09-01T16:56:18.784Z,0.90
2022-09-01T16:59:02.301Z,1.02
2022-09-01T17:01:42.182Z,1.17
2022-09-01T17:04:29.131Z,0.90
2022-09-01T17:07:08.859Z,1.40
2022-09-01T17:09:44.153Z,1.00
2022-09-01T17:12:30.842Z,1.23
2022-09-01T17:15:02.078Z,1.65
2022-09-01T17:17:36.870Z,1.17
2022-09-01T17:20:11.397Z,1.00
2022-09-01T17:22:46.788Z,1.10
2022-09-01T17:25:28.757Z,0.93
2022-09-01T17:28:02.569Z,1.33
2022-09-01T17:30:36.187Z,0.95
2022-09-01T17:33:18.601Z,0.90
2022-09-01T17:36:01.696Z,0.85
2022-09-01T17:38:52.293Z,0.95
2022-09-01T17:41:30.377Z,1.27
2022-09-01T17:44:07.101Z,1.15
2022-09-01T17:46:41.650Z,1.00
2022-09-01T17:49:17.385Z,1.25
2022-09-01T17:51:57.358Z,0.82
2022-09-01T17:54:34.786Z,1.10
2022-09-01T17:57:11.274Z,0.80
2022-09-01T17:59:46.385Z,1.23
2022-09-01T18:02:32.835Z,0.98
2022-09-01T18:05:09.410Z,1.00
2022-09-01T18:08:01.226Z,1.25
2022-09-01T18:10:42.917Z,1.50
2022-09-01T18:13:30.848Z,1.00
2022-09-01T18:16:22.119Z,1.33
2022-09-01T18:18:54.662Z,0.93
2022-09-01T18:21:25.906Z,1.08
2022-09-01T18:24:07.763Z,1.00
2022-09-01T18:26:40.245Z,1.00
2022-09-01T18:29:09.623Z,0.95
2022-09-01T18:32:08.529Z,1.50
2022-09-01T18:34:50.928Z,1.20
2022-09-01T18:37:32.797Z,0.90
2022-09-01T18:40:12.065Z,1.40
2022-09-01T18:42:49.603Z,1.17
2022-09-01T18:45:38.713Z,1.08
2022-09-01T18:48:17.634Z,1.38
2022-09-01T18:50:52.062Z,1.40
2022-09-01T18:53:35.699Z,1.58
2022-09-01T18:56:24.987Z,1.27
2022-09-01T18:59:11.055Z,1.58
2022-09-01T19:01:58.027Z,0.95
2022-09-01T19:04:31.862Z,1.27
2022-09-01T19:07:11.819Z,1.58
2022-09-01T19:10:03.944Z,1.10
2022-09-01T19:12:42.935Z,1.25
2022-09-01T19:15:20.148Z,1.20
2022-09-01T19:18:13.063Z,1.70
2022-09-01T19:20:47.878Z,1.02
2022-09-01T19:23:22.331Z,1.48
2022-09-01T19:25:55.704Z,1.27
2022-09-01T19:28:36.208Z,1.13
2022-09-01T19:31:16.470Z,1.05
2022-09-01T19:33:49.581Z,1.17
2022-09-01T19:36:22.902Z,1.20
2022-09-01T19:38:51.760Z,1.00
2022-09-01T19:41:25.301Z,1.00
2022-09-01T19:43:59.298Z,0.98
2022-09-01T19:46:37.755Z,1.33
2022-09-01T19:49:22.604Z,1.13
2022-09-01T19:52:04.727Z,1.00
2022-09-01T19:54:54.831Z,1.00
2022-09-01T19:57:34.099Z,1.20
2022-09-01T20:00:14.942Z,1.10
2022-09-01T20:02:51.828Z,1.20
2022-09-01T20:05:38.586Z,1.02
2022-09-01T20:08:27.312Z,1.20
2022-09-01T20:11:01.251Z,0.90
2022-09-01T20:14:02.830Z,1.27
2022-09-01T20:16:51.190Z,1.05
2022-09-01T20:19:30.325Z,0.70
2022-09-01T20:22:19.812Z,0.90
2022-09-01T20:25:04.722Z,1.10
2022-09-01T20:27:34.610Z,0.90
2022-09-01T20:30:07.131Z,1.27
2022-09-01T20:32:43.782Z,0.82
2022-09-01T20:35:14.896Z,0.95
2022-09-01T20:37:48.986Z,0.95
2022-09-01T20:40:31.570Z,0.95
2022-09-01T20:43:20.288Z,0.80
2022-09-01T20:45:48.431Z,1.02
2022-09-01T20:48:20.466Z,0.82
2022-09-01T20:51:02.131Z,0.90
2022-09-01T20:54:01.524Z,1.02
2022-09-01T20:56:45.103Z,1.02
2022-09-01T20:59:22.656Z,1.02
2022-09-01T21:01:57.478Z,1.00
2022-09-01T21:04:37.544Z,0.90
2022-09-01T21:07:14.513Z,0.82
2022-09-01T21:09:53.514Z,1.10
2022-09-01T21:12:34.146Z,1.00
2022-09-01T21:15:33.943Z,1.00
2022-09-01T21:18:16.933Z,0.90
2022-09-01T21:20:59.255Z,0.88
2022-09-01T21:23:33.708Z,0.63
2022-09-01T21:26:03.166Z,0.90
2022-09-01T21:34:43.562Z,1.08
2022-09-01T21:37:12.230Z,0.90
2022-09-01T21:39:40.267Z,1.10
2022-09-01T21:42:17.165Z,0.90
2022-09-01T21:44:45.455Z,0.90
2022-09-01T21:47:13.999Z,0.80
2022-09-01T21:49:42.101Z,1.00
2022-09-01T21:52:10.085Z,0.70
2022-09-01T21:54:38.353Z,0.80
2022-09-01T21:57:06.696Z,0.80
2022-09-01T21:59:36.044Z,1.10
2022-09-01T22:02:11.120Z,1.10
2022-09-01T22:04:39.757Z,0.90
2022-09-01T22:07:19.091Z,0.65
2022-09-01T22:09:48.026Z,0.93
2022-09-01T22:12:16.106Z,0.95
2022-09-01T22:14:45.506Z,0.90
2022-09-01T22:17:13.549Z,0.65
2022-09-01T22:19:44.955Z,0.90
2022-09-01T22:22:13.049Z,1.00
2022-09-01T22:24:44.263Z,1.10
2022-09-01T22:27:15.278Z,1.20
2022-09-01T22:29:43.415Z,0.80
2022-09-01T22:32:12.881Z,0.73
2022-09-01T22:34:41.364Z,0.80
2022-09-01T22:37:14.605Z,1.08
2022-09-01T22:39:42.902Z,0.85
2022-09-01T22:42:10.900Z,1.20
2022-09-01T22:44:38.851Z,0.73
2022-09-01T22:47:07.653Z,1.08
2022-09-01T22:49:36.980Z,0.80
2022-09-01T22:52:05.031Z,1.00
2022-09-01T22:54:36.213Z,1.00
2022-09-01T22:57:04.660Z,1.02
2022-09-01T22:59:35.781Z,0.88
2022-09-01T23:02:09.644Z,1.15
2022-09-01T23:04:40.457Z,1.17
2022-09-01T23:07:08.537Z,0.80
2022-09-01T23:09:37.513Z,1.17
2022-09-01T23:12:05.911Z,0.95
2022-09-01T23:14:40.301Z,1.00
2022-09-01T23:17:11.123Z,1.05
2022-09-01T23:19:40.552Z,0.90
2022-09-01T23:22:08.594Z,0.82
2022-09-01T23:24:36.537Z,1.00
2022-09-01T23:27:06.623Z,0.73
2022-09-01T23:29:34.802Z,0.70
2022-09-01T23:32:02.936Z,0.88
2022-09-01T23:34:31.057Z,0.70
2022-09-01T23:37:00.391Z,1.30
2022-09-01T23:39:28.423Z,0.70
2022-09-01T23:41:58.924Z,0.90
2022-09-01T23:44:26.945Z,1.10
2022-09-01T23:46:54.937Z,0.85
2022-09-01T23:49:22.961Z,0.60
2022-09-01T23:51:55.753Z,0.80
2022-09-01T23:54:25.163Z,0.95
2022-09-01T23:56:56.203Z,0.88
2022-09-01T23:59:27.290Z,0.98
